Time;durP1;ratioP1;P1;durP2;ratioP2;P2;SDS_P1;SDS_P2;PMS_P1;PMS_P2;Temp;Humidity;BMP_temperature;BMP_pressure;BME280_temperature;BME280_humidity;BME280_pressure;Samples;Min_cycle;Max_cycle;Signal;HPM_P1;HPM_P2
2023/01/30 00:00:48;;;;;;;43.83;30.55;;;;;;;4.84;79.59;101798.88;5032901;28;20083;-69
2023/01/30 00:03:13;;;;;;;44.53;29.73;;;;;;;4.87;79.07;101793.00;5027140;28;20446;-69
2023/01/30 00:05:38;;;;;;;41.65;29.20;;;;;;;4.91;79.75;101782.41;5027964;28;20022;-69
2023/01/30 00:08:04;;;;;;;44.03;28.52;;;;;;;4.92;79.41;101762.13;5029222;28;20137;-69
2023/01/30 00:10:29;;;;;;;42.03;29.17;;;;;;;4.91;79.93;101765.91;5045315;28;20492;-70
2023/01/30 00:12:54;;;;;;;45.25;30.40;;;;;;;4.95;79.21;101772.72;5042138;28;20021;-69
2023/01/30 00:15:20;;;;;;;46.13;29.60;;;;;;;5.01;79.78;101763.72;5039718;28;20481;-69
2023/01/30 00:17:45;;;;;;;43.63;29.50;;;;;;;5.03;79.60;101764.38;5046714;28;20029;-70
2023/01/30 00:20:10;;;;;;;43.63;28.58;;;;;;;5.03;80.04;101736.00;5047685;28;20538;-70
2023/01/30 00:22:36;;;;;;;44.28;29.83;;;;;;;5.08;79.15;101733.53;5046247;28;20040;-70
2023/01/30 00:25:01;;;;;;;42.72;30.33;;;;;;;5.09;79.64;101738.81;5045178;28;20501;-68
2023/01/30 00:27:26;;;;;;;39.42;28.85;;;;;;;5.11;79.53;101750.50;5046518;28;20058;-69
2023/01/30 00:29:52;;;;;;;41.40;29.23;;;;;;;5.11;79.83;101750.50;5040141;28;20029;-69
2023/01/30 00:32:17;;;;;;;39.28;27.95;;;;;;;5.15;79.56;101770.25;5045219;28;20116;-70
2023/01/30 00:34:42;;;;;;;39.78;29.35;;;;;;;5.14;80.04;101760.25;5045155;28;20079;-68
2023/01/30 00:37:08;;;;;;;41.33;29.63;;;;;;;5.16;79.74;101753.50;5047096;28;20037;-69
2023/01/30 00:39:33;;;;;;;40.00;28.20;;;;;;;5.15;79.91;101751.81;5045362;28;20084;-70
2023/01/30 00:47:26;;;;;;;40.28;29.10;;;;;;;5.19;80.00;101733.03;5032737;28;20103;-68
2023/01/30 00:49:52;;;;;;;39.80;28.98;;;;;;;5.22;80.07;101734.50;5040263;28;20026;-69
2023/01/30 00:52:17;;;;;;;38.70;29.10;;;;;;;5.24;79.64;101729.66;5044657;28;20029;-68
2023/01/30 00:54:43;;;;;;;42.50;27.83;;;;;;;5.25;79.58;101734.13;5047372;28;20027;-69
2023/01/30 00:57:08;;;;;;;38.92;29.13;;;;;;;5.26;79.93;101733.91;5048069;28;20112;-68
2023/01/30 00:59:33;;;;;;;41.20;29.38;;;;;;;5.27;80.56;101727.38;5048031;28;20033;-68
2023/01/30 01:01:59;;;;;;;41.40;29.60;;;;;;;5.27;80.24;101734.78;5048181;28;20377;-68
2023/01/30 01:04:24;;;;;;;41.47;28.98;;;;;;;5.27;80.01;101732.88;5040671;28;20036;-69
2023/01/30 01:06:49;;;;;;;41.28;29.15;;;;;;;5.28;80.16;101728.22;5050365;28;20053;-69
2023/01/30 01:09:15;;;;;;;41.58;29.35;;;;;;;5.29;80.47;101725.25;5034001;28;20030;-68
2023/01/30 01:11:40;;;;;;;42.65;29.75;;;;;;;5.31;80.28;101722.34;5034065;28;20046;-68
2023/01/30 01:14:06;;;;;;;43.53;29.90;;;;;;;5.32;80.73;101721.28;5033402;28;20022;-68
2023/01/30 01:16:34;;;;;;;40.10;27.95;;;;;;;5.31;80.38;101711.31;5043808;28;20060;-68
2023/01/30 01:19:00;;;;;;;41.72;29.20;;;;;;;5.32;80.43;101705.63;5047360;28;20021;-69
2023/01/30 01:21:25;;;;;;;38.88;29.50;;;;;;;5.33;80.61;101711.97;5043772;28;20031;-69
2023/01/30 01:23:53;;;;;;;37.88;29.50;;;;;;;5.33;80.02;101728.47;5051678;28;20392;-69
2023/01/30 01:26:19;;;;;;;39.90;29.65;;;;;;;5.35;80.20;101713.47;5043098;28;20152;-68
2023/01/30 01:28:44;;;;;;;41.88;29.52;;;;;;;5.36;80.38;101711.56;5051568;28;20025;-69
2023/01/30 01:31:11;;;;;;;40.33;29.25;;;;;;;5.38;80.77;101703.94;5051579;28;20378;-68
2023/01/30 01:33:37;;;;;;;37.30;27.75;;;;;;;5.38;80.22;101696.56;5049439;28;20029;-70
2023/01/30 01:36:02;;;;;;;40.45;28.00;;;;;;;5.40;80.28;101688.94;5042835;28;20040;-69
2023/01/30 01:38:28;;;;;;;40.53;29.63;;;;;;;5.40;80.79;101688.94;5051078;28;20135;-69
2023/01/30 01:41:02;;;;;;;40.72;28.80;;;;;;;5.43;80.59;101698.72;5043083;28;20029;-69
2023/01/30 01:43:31;;;;;;;40.60;28.95;;;;;;;5.45;80.56;101685.59;5041058;28;20620;-67
2023/01/30 01:46:06;;;;;;;42.60;29.80;;;;;;;5.45;81.11;101685.59;5038883;28;20374;-68
2023/01/30 01:48:36;;;;;;;44.38;30.15;;;;;;;5.42;81.28;101686.00;5051081;28;20033;-68
2023/01/30 01:51:14;;;;;;;41.13;28.45;;;;;;;5.44;80.92;101681.16;5052143;28;20032;-68
2023/01/30 01:53:46;;;;;;;43.13;29.65;;;;;;;5.43;81.67;101649.16;5053041;28;20490;-68
2023/01/30 01:56:14;;;;;;;41.97;30.23;;;;;;;5.43;81.87;101662.94;5052247;28;20068;-69
2023/01/30 01:58:46;;;;;;;38.85;28.27;;;;;;;5.46;81.67;101651.50;5051973;28;20082;-68
2023/01/30 02:01:11;;;;;;;43.43;29.77;;;;;;;5.48;81.49;101654.91;5046772;28;20053;-68
2023/01/30 02:03:44;;;;;;;45.47;28.65;;;;;;;5.50;81.63;101643.69;5042377;28;20130;-68
2023/01/30 02:06:11;;;;;;;37.05;28.50;;;;;;;5.51;81.16;101646.25;5052249;28;20040;-68
2023/01/30 02:08:39;;;;;;;36.47;27.85;;;;;;;5.54;81.39;101650.50;5053038;28;20086;-68
2023/01/30 02:11:17;;;;;;;39.08;28.27;;;;;;;5.54;81.36;101645.00;5050327;28;20033;-68
2023/01/30 02:13:45;;;;;;;40.10;28.50;;;;;;;5.57;81.82;101648.19;5052901;28;20574;-68
2023/01/30 02:16:10;;;;;;;36.58;27.65;;;;;;;5.60;81.60;101647.81;5047070;28;20036;-68
2023/01/30 02:18:40;;;;;;;41.38;28.88;;;;;;;5.58;81.71;101638.91;5051485;28;20396;-69
2023/01/30 02:21:18;;;;;;;39.83;27.85;;;;;;;5.61;81.69;101635.72;5036064;28;20795;-68
2023/01/30 02:24:02;;;;;;;40.17;27.55;;;;;;;5.62;81.39;101622.84;5042279;28;20819;-68
2023/01/30 02:26:42;;;;;;;41.22;28.17;;;;;;;5.61;82.27;101613.69;5051334;28;20037;-69
2023/01/30 02:29:26;;;;;;;40.42;27.95;;;;;;;5.65;81.88;101619.66;5051287;28;20028;-68
2023/01/30 02:32:18;;;;;;;39.72;28.00;;;;;;;5.64;82.08;101605.03;5048443;28;20127;-68
2023/01/30 02:34:56;;;;;;;40.22;27.80;;;;;;;5.65;82.30;101609.47;5048861;28;20116;-68
2023/01/30 02:37:39;;;;;;;35.53;26.50;;;;;;;5.68;81.94;101604.63;5035772;28;20597;-68
2023/01/30 02:40:04;;;;;;;38.97;27.73;;;;;;;5.68;81.82;101607.38;5047482;28;20032;-68
2023/01/30 02:42:37;;;;;;;40.50;27.60;;;;;;;5.71;82.17;101612.50;5043935;28;20036;-69
2023/01/30 02:45:17;;;;;;;39.03;28.88;;;;;;;5.74;81.91;101623.09;5034967;28;20985;-69
2023/01/30 02:48:08;;;;;;;39.63;28.58;;;;;;;5.74;82.23;101601.94;5041571;28;20044;-68
2023/01/30 02:50:41;;;;;;;40.70;27.83;;;;;;;5.76;81.60;101612.72;5039024;28;20480;-69
2023/01/30 02:53:07;;;;;;;41.83;28.88;;;;;;;5.76;82.13;101609.97;5036473;28;20033;-68
2023/01/30 02:55:33;;;;;;;38.63;27.67;;;;;;;5.78;81.99;101607.88;5044527;28;20490;-68
2023/01/30 02:58:00;;;;;;;40.00;29.52;;;;;;;5.77;82.43;101601.50;5033840;28;20071;-68
2023/01/30 03:00:54;;;;;;;40.13;29.45;;;;;;;5.81;82.41;101607.47;5043305;28;20143;-68
2023/01/30 03:03:27;;;;;;;43.15;28.38;;;;;;;5.80;82.58;101598.34;5049315;28;20025;-68
2023/01/30 03:06:18;;;;;;;38.92;28.60;;;;;;;5.81;82.80;101596.44;5043439;28;20040;-68
2023/01/30 03:09:14;;;;;;;41.55;28.83;;;;;;;5.82;82.82;101581.63;5051546;28;20029;-68
2023/01/30 03:11:56;;;;;;;41.08;29.55;;;;;;;5.82;82.38;101596.25;5030413;28;20088;-68
2023/01/30 03:14:26;;;;;;;47.95;30.30;;;;;;;5.83;82.51;101588.84;5037114;28;20455;-68
2023/01/30 03:16:55;;;;;;;38.75;29.52;;;;;;;5.83;82.43;101583.31;5038620;28;20492;-68
2023/01/30 03:19:21;;;;;;;42.70;29.35;;;;;;;5.84;83.40;101576.75;5051703;28;20456;-68
2023/01/30 03:21:47;;;;;;;40.53;29.95;;;;;;;5.80;84.25;101578.22;5050809;28;20090;-68
2023/01/30 03:24:13;;;;;;;41.72;29.60;;;;;;;5.82;84.06;101581.63;5047886;28;20480;-68
2023/01/30 03:26:51;;;;;;;45.05;30.83;;;;;;;5.79;84.07;101591.16;5048391;28;20556;-68
2023/01/30 03:29:16;;;;;;;39.10;29.98;;;;;;;5.82;84.64;101582.47;5042278;28;20039;-68
2023/01/30 03:31:41;;;;;;;36.47;28.35;;;;;;;5.83;83.97;101583.31;5050469;28;20388;-68
2023/01/30 03:34:07;;;;;;;42.80;30.85;;;;;;;5.81;84.76;101579.91;5043020;28;20499;-69
2023/01/30 03:36:32;;;;;;;38.80;30.20;;;;;;;5.81;84.57;101579.91;5042417;28;20029;-68
2023/01/30 03:38:58;;;;;;;38.53;29.23;;;;;;;5.81;84.94;101575.25;5051059;28;20075;-68
2023/01/30 03:41:23;;;;;;;37.00;29.48;;;;;;;5.83;85.24;101566.78;5047738;28;20044;-69
2023/01/30 03:43:48;;;;;;;41.60;29.42;;;;;;;5.85;84.28;101554.50;5050281;28;20040;-69
2023/01/30 03:46:14;;;;;;;36.60;28.35;;;;;;;5.88;84.74;101561.50;5051049;28;20032;-69
2023/01/30 03:48:39;;;;;;;39.10;30.38;;;;;;;5.89;85.20;101563.19;5050476;28;20063;-69
2023/01/30 03:51:04;;;;;;;39.80;29.48;;;;;;;5.88;85.52;101567.88;5041622;28;20230;-69
2023/01/30 03:53:29;;;;;;;36.83;29.40;;;;;;;5.89;84.92;101565.97;5050659;28;20029;-69
2023/01/30 03:55:55;;;;;;;41.13;28.85;;;;;;;5.89;85.15;101565.97;5049618;28;20035;-68
2023/01/30 03:58:20;;;;;;;38.47;29.45;;;;;;;5.90;85.69;101567.69;5037121;28;20033;-69
2023/01/30 04:00:45;;;;;;;40.00;31.52;;;;;;;5.86;86.18;101558.13;5045073;28;20025;-69
2023/01/30 04:03:11;;;;;;;37.85;29.45;;;;;;;5.88;85.76;101559.59;5048839;28;20396;-69
2023/01/30 04:05:36;;;;;;;43.90;29.95;;;;;;;5.88;85.20;101572.53;5050151;28;20021;-68
2023/01/30 04:08:01;;;;;;;37.85;29.80;;;;;;;5.91;85.29;101570.22;5041711;28;20043;-68
2023/01/30 04:10:26;;;;;;;37.92;28.25;;;;;;;5.92;85.55;101565.59;5045001;28;20043;-68
2023/01/30 04:12:52;;;;;;;34.72;26.15;;;;;;;5.97;85.12;101571.31;5050819;28;20384;-68
2023/01/30 04:15:17;;;;;;;40.55;28.75;;;;;;;5.97;85.61;101563.06;5050929;28;20054;-68
2023/01/30 04:17:43;;;;;;;34.85;27.63;;;;;;;5.98;86.18;101575.81;5050081;28;20057;-68
2023/01/30 04:20:09;;;;;;;34.75;27.75;;;;;;;5.98;86.30;101563.94;5049733;28;20424;-68
2023/01/30 04:22:35;;;;;;;40.17;29.15;;;;;;;5.99;86.61;101565.63;5050574;28;20029;-68
2023/01/30 04:25:01;;;;;;;37.25;28.65;;;;;;;5.99;86.68;101558.22;5046445;28;20029;-68
2023/01/30 04:27:26;;;;;;;34.95;28.13;;;;;;;6.02;86.02;101560.56;5042353;28;20033;-68
2023/01/30 04:29:51;;;;;;;35.10;26.10;;;;;;;6.04;85.59;101558.44;5050183;28;20078;-68
2023/01/30 04:32:17;;;;;;;31.65;25.67;;;;;;;6.05;86.26;101543.63;5050097;28;20029;-68
2023/01/30 04:34:43;;;;;;;31.77;24.67;;;;;;;6.08;85.77;101543.19;5048742;28;20036;-68
2023/01/30 04:37:09;;;;;;;32.47;23.15;;;;;;;6.10;86.35;101540.25;5048839;28;20479;-69
2023/01/30 04:39:35;;;;;;;29.67;22.08;;;;;;;6.12;86.78;101543.63;5051031;28;20060;-68
2023/01/30 04:42:00;;;;;;;32.38;21.27;;;;;;;6.13;86.57;101548.94;5046082;28;20071;-68
2023/01/30 04:44:25;;;;;;;26.58;20.95;;;;;;;6.17;86.13;101556.78;5053656;28;20125;-69
2023/01/30 04:46:51;;;;;;;30.15;21.60;;;;;;;6.17;86.61;101554.03;5052618;28;20033;-68
2023/01/30 04:49:16;;;;;;;28.55;20.67;;;;;;;6.18;86.46;101542.81;5051940;28;20119;-68
2023/01/30 04:51:41;;;;;;;24.17;19.92;;;;;;;6.21;86.31;101555.31;5052409;28;20767;-69
2023/01/30 04:54:07;;;;;;;26.67;18.65;;;;;;;6.22;86.54;101552.34;5054223;28;20443;-68
2023/01/30 04:56:32;;;;;;;27.58;18.27;;;;;;;6.25;86.18;101562.09;5048868;28;20048;-68
2023/01/30 04:58:57;;;;;;;20.80;17.05;;;;;;;6.27;86.13;101557.25;5047350;28;20037;-69
2023/01/30 05:01:30;;;;;;;22.35;16.60;;;;;;;6.27;86.46;101555.34;5043057;28;20029;-69
2023/01/30 05:03:55;;;;;;;22.63;14.70;;;;;;;6.28;86.36;101543.25;5053433;28;20392;-67
2023/01/30 05:06:22;;;;;;;21.90;14.32;;;;;;;6.26;86.86;101556.41;5053327;28;20025;-66
2023/01/30 05:08:49;;;;;;;21.15;14.32;;;;;;;6.30;86.83;101559.59;5051705;28;20032;-69
2023/01/30 05:11:14;;;;;;;19.33;13.80;;;;;;;6.34;86.27;101564.47;5048387;28;20389;-67
2023/01/30 05:13:40;;;;;;;25.95;12.95;;;;;;;6.32;86.50;101565.72;5052247;28;20029;-68
2023/01/30 05:16:06;;;;;;;21.52;12.15;;;;;;;6.35;86.22;101574.44;5044449;28;20028;-67
2023/01/30 05:18:32;;;;;;;19.08;12.20;;;;;;;6.35;87.30;101565.31;5037406;28;20034;-67
2023/01/30 05:21:13;;;;;;;20.90;12.20;;;;;;;6.37;86.91;101564.06;5033656;28;20091;-67
2023/01/30 05:23:38;;;;;;;19.92;11.60;;;;;;;6.39;86.00;101563.84;5053243;28;20550;-67
2023/01/30 05:26:04;;;;;;;22.70;11.90;;;;;;;6.43;86.25;101559.63;5052970;28;20059;-67
2023/01/30 05:28:29;;;;;;;19.92;11.23;;;;;;;6.44;86.34;101550.28;5053375;28;20021;-67
2023/01/30 05:31:06;;;;;;;18.65;10.68;;;;;;;6.46;86.09;101556.44;5052448;28;20025;-68
2023/01/30 05:33:35;;;;;;;17.15;9.25;;;;;;;6.48;86.03;101550.72;5040031;28;20040;-68
2023/01/30 05:36:00;;;;;;;15.50;9.27;;;;;;;6.51;85.49;101558.56;5038905;28;20028;-69
2023/01/30 05:38:26;;;;;;;21.60;9.20;;;;;;;6.52;85.80;101557.50;5033776;28;20041;-68
2023/01/30 05:41:03;;;;;;;16.77;8.73;;;;;;;6.53;85.21;101562.84;5050582;28;20056;-68
2023/01/30 05:43:29;;;;;;;17.90;8.55;;;;;;;6.55;85.50;101559.84;5052430;28;20037;-68
2023/01/30 05:45:57;;;;;;;16.75;7.85;;;;;;;6.54;85.04;101552.66;5051024;28;20481;-68
2023/01/30 05:48:23;;;;;;;17.42;7.95;;;;;;;6.56;84.74;101543.13;5050203;28;20465;-68
2023/01/30 05:50:50;;;;;;;11.48;6.72;;;;;;;6.59;84.79;101547.34;5038316;28;20052;-68
2023/01/30 05:53:20;;;;;;;17.02;8.10;;;;;;;6.61;84.53;101548.84;5052599;28;20110;-67
2023/01/30 05:55:46;;;;;;;16.17;8.02;;;;;;;6.60;84.69;101546.28;5048956;28;20105;-68
2023/01/30 05:58:11;;;;;;;18.63;7.30;;;;;;;6.61;84.67;101554.34;5051355;28;20536;-67
2023/01/30 06:00:37;;;;;;;22.10;8.10;;;;;;;6.62;84.74;101564.31;5049575;28;20082;-68
2023/01/30 06:03:07;;;;;;;15.77;8.48;;;;;;;6.64;84.85;101572.38;5037041;28;20076;-67
2023/01/30 06:05:32;;;;;;;13.23;7.20;;;;;;;6.65;84.14;101585.13;5039235;28;20025;-67
2023/01/30 06:07:57;;;;;;;14.10;6.75;;;;;;;6.66;84.62;101580.47;5048808;28;20597;-67
2023/01/30 06:10:23;;;;;;;19.27;7.13;;;;;;;6.66;84.71;101581.31;5044529;28;20037;-68
2023/01/30 06:12:48;;;;;;;16.25;6.68;;;;;;;6.67;84.20;101582.16;5045786;28;20102;-67
2023/01/30 06:15:13;;;;;;;15.77;6.60;;;;;;;6.67;83.79;101568.38;5047428;28;20034;-68
2023/01/30 06:17:42;;;;;;;14.70;7.00;;;;;;;6.63;83.45;101573.44;5048310;28;20112;-67
2023/01/30 06:20:09;;;;;;;19.02;6.57;;;;;;;6.66;83.73;101573.03;5039871;28;20071;-68
2023/01/30 06:22:34;;;;;;;16.98;6.43;;;;;;;6.67;84.02;101577.47;5044280;28;20076;-68
2023/01/30 06:24:59;;;;;;;18.55;5.85;;;;;;;6.68;83.48;101590.25;5049264;28;20079;-68
2023/01/30 06:27:25;;;;;;;18.83;6.13;;;;;;;6.69;83.35;101577.28;5048596;28;20033;-68
2023/01/30 06:29:50;;;;;;;15.07;5.68;;;;;;;6.70;82.20;101596.38;5051416;28;20037;-68
2023/01/30 06:32:17;;;;;;;19.85;5.95;;;;;;;6.73;82.23;101600.66;5049086;28;20032;-69
2023/01/30 06:34:43;;;;;;;16.40;6.00;;;;;;;6.73;82.01;101608.91;5050908;28;20037;-68
2023/01/30 06:37:08;;;;;;;15.80;5.10;;;;;;;6.70;81.55;101612.94;5036495;28;20062;-69
2023/01/30 06:39:33;;;;;;;15.95;4.90;;;;;;;6.70;81.25;101609.34;5049499;28;20055;-68
2023/01/30 06:41:59;;;;;;;17.42;4.75;;;;;;;6.68;81.14;101608.69;5051649;28;20481;-68
2023/01/30 06:44:24;;;;;;;18.85;4.95;;;;;;;6.69;80.63;101610.41;5047952;28;20036;-69
2023/01/30 06:46:49;;;;;;;12.27;4.57;;;;;;;6.62;79.72;101600.19;5050612;28;20040;-68
2023/01/30 06:49:14;;;;;;;13.07;4.40;;;;;;;6.63;80.32;101617.59;5047100;28;20052;-68
2023/01/30 06:51:40;;;;;;;16.02;4.97;;;;;;;6.64;80.71;101624.78;5038189;28;20087;-69
2023/01/30 06:54:05;;;;;;;15.98;4.32;;;;;;;6.63;79.94;101623.09;5050430;28;20064;-68
2023/01/30 06:56:30;;;;;;;16.60;4.53;;;;;;;6.63;79.91;101620.34;5046969;28;20033;-68
2023/01/30 06:58:58;;;;;;;14.05;4.53;;;;;;;6.61;79.79;101623.31;5050486;28;20394;-68
2023/01/30 07:01:24;;;;;;;19.48;4.10;;;;;;;6.62;79.21;101605.69;5046584;28;20417;-68
2023/01/30 07:03:49;;;;;;;13.63;3.80;;;;;;;6.61;78.97;101598.50;5049077;28;20086;-69
2023/01/30 07:06:14;;;;;;;14.00;3.63;;;;;;;6.58;78.26;101587.88;5049408;28;20029;-68
2023/01/30 07:08:39;;;;;;;14.82;3.75;;;;;;;6.58;78.52;101604.41;5047940;28;20040;-68
2023/01/30 07:11:05;;;;;;;13.40;4.32;;;;;;;6.57;77.87;101602.72;5039251;28;20036;-69
2023/01/30 07:13:31;;;;;;;15.55;3.55;;;;;;;6.57;77.57;101613.75;5047957;28;20041;-68
2023/01/30 07:15:56;;;;;;;21.42;3.95;;;;;;;6.55;77.03;101604.81;5048525;28;20127;-68
2023/01/30 07:18:21;;;;;;;14.00;3.50;;;;;;;6.55;77.33;101623.28;5049250;28;20021;-68
2023/01/30 07:20:47;;;;;;;15.45;3.70;;;;;;;6.54;76.70;101625.19;5035755;28;20381;-68
2023/01/30 07:23:13;;;;;;;14.15;3.55;;;;;;;6.51;77.15;101624.75;5047574;28;20033;-68
2023/01/30 07:25:38;;;;;;;14.60;3.85;;;;;;;6.53;76.51;101618.00;5048680;28;20044;-68
2023/01/30 07:28:04;;;;;;;15.13;3.92;;;;;;;6.53;76.89;101629.03;5033571;28;20074;-68
2023/01/30 07:30:34;;;;;;;19.35;3.30;;;;;;;6.51;76.15;101630.28;5035488;28;20033;-68
2023/01/30 07:33:01;;;;;;;20.02;4.00;;;;;;;6.45;75.88;101637.50;5043336;28;20029;-68
2023/01/30 07:35:29;;;;;;;16.63;3.42;;;;;;;6.48;75.96;101638.97;5045538;28;20033;-69
2023/01/30 07:37:55;;;;;;;16.00;3.60;;;;;;;6.47;76.47;101651.91;5045508;28;20033;-69
2023/01/30 07:40:21;;;;;;;14.25;3.38;;;;;;;6.47;76.59;101643.63;5047152;28;20032;-67
2023/01/30 07:43:01;;;;;;;18.77;4.03;;;;;;;6.51;76.71;101653.19;5042740;28;20033;-69
2023/01/30 07:45:41;;;;;;;12.48;3.35;;;;;;;6.51;76.60;101652.34;5039893;28;20087;-68
2023/01/30 07:48:08;;;;;;;17.67;4.50;;;;;;;6.50;75.97;101645.97;5041640;28;20029;-70
2023/01/30 07:50:34;;;;;;;19.70;3.40;;;;;;;6.51;75.98;101652.34;5043250;28;20041;-67
2023/01/30 07:53:04;;;;;;;17.05;5.05;;;;;;;6.52;75.03;101654.03;5036144;28;20041;-68
2023/01/30 07:55:30;;;;;;;14.05;3.58;;;;;;;6.51;75.43;101658.72;5030543;28;20043;-68
2023/01/30 07:57:55;;;;;;;16.35;4.25;;;;;;;6.54;75.39;101640.91;5042573;28;20370;-70
2023/01/30 08:00:21;;;;;;;15.77;4.00;;;;;;;6.53;74.88;101650.25;5040959;28;20079;-67
2023/01/30 08:02:52;;;;;;;19.33;4.38;;;;;;;6.54;74.97;101655.53;5041216;28;20036;-70
2023/01/30 08:05:20;;;;;;;21.98;4.22;;;;;;;6.53;74.69;101656.59;5036918;28;20090;-66
2023/01/30 08:07:48;;;;;;;19.08;4.10;;;;;;;6.52;75.14;101654.03;5041046;28;20028;-68
2023/01/30 08:10:14;;;;;;;18.98;3.92;;;;;;;6.60;76.10;101659.38;5044438;28;20052;-63
2023/01/30 08:12:40;;;;;;;16.85;4.00;;;;;;;6.59;74.53;101657.69;5035084;28;20544;-67
2023/01/30 08:15:07;;;;;;;17.50;4.07;;;;;;;6.58;74.25;101672.53;5040932;28;20032;-69
2023/01/30 08:17:33;;;;;;;14.48;3.42;;;;;;;6.58;73.92;101678.91;5046684;28;20476;-69
2023/01/30 08:19:58;;;;;;;20.15;4.13;;;;;;;6.59;73.40;101677.84;5044839;28;20117;-70
2023/01/30 08:22:26;;;;;;;21.27;4.03;;;;;;;6.59;73.76;101680.59;5028083;28;20389;-68
2023/01/30 08:24:51;;;;;;;16.30;3.85;;;;;;;6.59;73.77;101679.75;5032378;28;20048;-71
2023/01/30 08:27:17;;;;;;;20.90;3.55;;;;;;;6.57;73.26;101685.47;5046299;28;20049;-74
2023/01/30 08:29:43;;;;;;;20.92;3.90;;;;;;;6.58;73.18;101689.09;5042405;28;20111;-70
2023/01/30 08:32:08;;;;;;;19.35;3.60;;;;;;;6.59;73.12;101688.00;5042124;28;20029;-70
2023/01/30 08:34:34;;;;;;;17.77;3.33;;;;;;;6.58;72.87;101687.16;5042440;28;20025;-71
2023/01/30 08:37:00;;;;;;;24.73;4.68;;;;;;;6.59;73.02;101683.34;5046070;28;20024;-74
2023/01/30 08:39:25;;;;;;;19.38;4.13;;;;;;;6.57;72.58;101685.47;5044541;28;20369;-70
2023/01/30 08:41:50;;;;;;;17.65;3.97;;;;;;;6.60;72.13;101689.72;5031877;28;20512;-74
2023/01/30 08:44:19;;;;;;;23.88;4.60;;;;;;;6.61;71.99;101697.81;5041243;28;20045;-75
2023/01/30 08:46:44;;;;;;;17.80;3.95;;;;;;;6.62;72.02;101702.25;5042217;28;20059;-74
2023/01/30 08:49:10;;;;;;;24.95;5.00;;;;;;;6.63;72.32;101698.44;5043499;28;20037;-74
2023/01/30 08:51:35;;;;;;;20.05;4.80;;;;;;;6.63;72.50;101700.34;5049396;28;20473;-73
2023/01/30 08:54:00;;;;;;;22.52;3.90;;;;;;;6.63;72.17;101703.09;5049079;28;20065;-70
2023/01/30 08:56:26;;;;;;;22.38;4.18;;;;;;;6.67;72.49;101700.78;5046483;28;20104;-71
2023/01/30 08:58:51;;;;;;;19.52;3.90;;;;;;;6.68;71.74;101696.94;5048126;28;20376;-71
2023/01/30 09:01:16;;;;;;;24.65;4.35;;;;;;;6.65;71.49;101709.28;5044705;28;20788;-71
2023/01/30 09:03:42;;;;;;;23.75;4.40;;;;;;;6.70;71.48;101705.88;5041160;28;20037;-70
2023/01/30 09:06:08;;;;;;;16.90;3.70;;;;;;;6.72;70.55;101714.78;5040375;28;20033;-71
2023/01/30 09:08:34;;;;;;;22.73;4.53;;;;;;;6.75;71.66;101726.28;5047938;28;20084;-71
2023/01/30 09:11:03;;;;;;;22.27;4.30;;;;;;;6.78;71.38;101741.56;5049936;28;20108;-71
2023/01/30 09:13:29;;;;;;;18.35;4.45;;;;;;;6.79;71.50;101735.84;5038684;28;20100;-70
2023/01/30 09:15:55;;;;;;;17.92;4.20;;;;;;;6.82;70.95;101734.59;5030927;28;20473;-70
2023/01/30 09:18:20;;;;;;;22.02;3.97;;;;;;;6.79;71.73;101732.22;5046117;28;20086;-69
2023/01/30 09:20:46;;;;;;;21.23;4.10;;;;;;;6.82;70.77;101734.59;5031981;28;20056;-70
2023/01/30 09:23:11;;;;;;;21.17;4.55;;;;;;;6.82;71.33;101734.59;5039199;28;20033;-71
2023/01/30 09:25:39;;;;;;;18.20;3.40;;;;;;;6.84;71.35;101743.53;5030218;28;20405;-72
2023/01/30 09:28:04;;;;;;;24.38;4.15;;;;;;;6.87;70.86;101743.94;5040822;28;20144;-72
2023/01/30 09:30:29;;;;;;;22.10;4.07;;;;;;;6.88;71.23;101747.56;5049698;28;20115;-71
2023/01/30 09:32:55;;;;;;;19.17;3.80;;;;;;;6.88;71.11;101745.66;5051594;28;20029;-71
2023/01/30 09:35:20;;;;;;;19.02;3.40;;;;;;;6.93;70.93;101738.66;5046825;28;20055;-72
2023/01/30 09:37:50;;;;;;;17.25;3.83;;;;;;;6.94;70.66;101756.91;5050486;28;20489;-71
2023/01/30 09:40:20;;;;;;;18.05;3.42;;;;;;;6.97;70.17;101757.34;5052069;28;20450;-70
2023/01/30 09:43:23;;;;;;;16.67;3.58;;;;;;;7.04;70.03;101771.19;5053552;28;20025;-71
2023/01/30 09:46:06;;;;;;;18.02;3.22;;;;;;;7.06;69.98;101763.53;5044453;28;20041;-72
2023/01/30 09:48:38;;;;;;;23.02;3.67;;;;;;;7.12;70.22;101760.81;5050618;28;20036;-72
2023/01/30 09:51:20;;;;;;;21.92;4.00;;;;;;;7.17;70.42;101765.69;5051908;28;20025;-69
2023/01/30 09:54:01;;;;;;;15.93;3.50;;;;;;;7.14;69.60;101761.44;5050770;28;20040;-68
2023/01/30 09:56:27;;;;;;;210.52;17.85;;;;;;;7.14;69.08;101775.22;5036978;28;20109;-68
2023/01/30 09:58:57;;;;;;;38.22;5.30;;;;;;;7.14;68.71;101769.72;5048628;28;20037;-67
2023/01/30 10:01:46;;;;;;;80.00;8.55;;;;;;;7.23;69.45;101767.63;5050941;28;20033;-67
2023/01/30 10:04:22;;;;;;;16.95;3.50;;;;;;;7.24;69.36;101774.00;5048694;28;20056;-67
2023/01/30 10:07:06;;;;;;;23.05;4.40;;;;;;;7.29;68.66;101780.59;5032103;28;20037;-66
2023/01/30 10:09:43;;;;;;;18.55;3.83;;;;;;;7.31;67.90;101774.84;5034985;28;20518;-67
2023/01/30 10:12:32;;;;;;;11.27;2.85;;;;;;;7.75;75.56;101781.72;5048913;28;20031;-69
2023/01/30 10:15:18;;;;;;;20.67;3.63;;;;;;;7.68;68.60;101787.25;5030897;28;20501;-67
2023/01/30 10:18:05;;;;;;;19.58;3.72;;;;;;;7.57;67.69;101783.19;5042742;28;20441;-67
2023/01/30 10:20:49;;;;;;;13.43;3.30;;;;;;;7.48;66.56;101787.22;5048808;28;20075;-67
2023/01/30 10:23:33;;;;;;;16.73;3.20;;;;;;;7.44;67.28;101785.94;5033703;28;20045;-65
2023/01/30 10:26:06;;;;;;;18.95;3.67;;;;;;;7.40;66.66;101794.84;5040618;28;20029;-66
2023/01/30 10:28:36;;;;;;;17.35;3.75;;;;;;;7.35;66.03;101784.44;5039268;28;20036;-68
2023/01/30 10:31:11;;;;;;;13.20;3.17;;;;;;;7.31;66.94;101795.06;5031224;28;20026;-74
2023/01/30 10:33:59;;;;;;;21.58;3.38;;;;;;;7.30;67.19;101790.56;5036706;28;20124;-65
2023/01/30 10:36:43;;;;;;;19.13;3.42;;;;;;;7.30;66.67;101798.84;5000695;28;20902;-65
2023/01/30 10:39:35;;;;;;;17.83;3.10;;;;;;;7.33;66.93;101800.34;5030440;28;20056;-63
2023/01/30 10:42:10;;;;;;;20.08;3.45;;;;;;;7.45;68.32;101795.06;5044542;28;20408;-72
2023/01/30 10:44:38;;;;;;;16.73;3.45;;;;;;;7.45;66.02;101809.72;5047911;28;20043;-70
2023/01/30 10:47:31;;;;;;;14.32;2.85;;;;;;;7.50;66.79;101806.34;5039092;28;20057;-71
2023/01/30 10:50:13;;;;;;;15.77;2.95;;;;;;;7.48;66.48;101820.38;5049741;28;20025;-69
2023/01/30 10:52:53;;;;;;;15.23;4.03;;;;;;;7.44;65.50;101810.81;5046538;28;20037;-71
2023/01/30 10:55:34;;;;;;;15.68;3.55;;;;;;;7.36;65.88;101822.03;5031188;28;20064;-68
2023/01/30 10:58:25;;;;;;;19.23;3.78;;;;;;;7.36;66.90;101820.13;5034240;28;20017;-67
2023/01/30 11:01:04;;;;;;;17.35;4.57;;;;;;;7.31;67.53;101814.38;5048257;28;20670;-65
2023/01/30 11:03:50;;;;;;;15.52;3.05;;;;;;;7.38;66.80;101817.16;5044996;28;20115;-68
2023/01/30 11:06:23;;;;;;;14.75;3.38;;;;;;;7.38;66.61;101829.03;5044721;28;20021;-71
2023/01/30 11:08:52;;;;;;;19.73;4.03;;;;;;;7.35;66.28;101823.09;5040914;28;20121;-70
2023/01/30 11:11:30;;;;;;;20.23;4.40;;;;;;;7.37;65.52;101820.97;5045855;28;20071;-68
2023/01/30 11:14:11;;;;;;;18.50;3.33;;;;;;;7.33;65.49;101822.44;5049185;28;20060;-68
2023/01/30 11:16:57;;;;;;;18.55;3.53;;;;;;;7.32;66.20;101826.28;5048605;28;20441;-68
2023/01/30 11:19:31;;;;;;;17.00;3.58;;;;;;;7.26;64.92;101821.56;5049518;28;20036;-70
2023/01/30 11:22:01;;;;;;;18.13;3.85;;;;;;;7.21;65.14;101822.19;5038662;28;20029;-69
2023/01/30 11:25:04;;;;;;;22.08;4.18;;;;;;;7.30;66.35;101822.84;5040966;28;20035;-69
2023/01/30 11:27:32;;;;;;;21.15;3.80;;;;;;;7.29;64.95;101819.25;5047766;28;20032;-67
2023/01/30 11:30:12;;;;;;;23.20;3.65;;;;;;;7.32;65.45;101818.84;5041951;28;20418;-67
2023/01/30 11:32:38;;;;;;;19.60;3.47;;;;;;;7.31;64.59;101821.78;5048365;28;20089;-67
2023/01/30 11:35:06;;;;;;;21.25;3.67;;;;;;;7.31;64.79;101813.50;5045819;28;20040;-67
2023/01/30 11:37:37;;;;;;;13.52;3.58;;;;;;;7.34;64.54;101825.00;5048917;28;20637;-67